Time;durP1;ratioP1;P1;durP2;ratioP2;P2;SDS_P1;SDS_P2;PMS_P1;PMS_P2;Temp;Humidity;BMP_temperature;BMP_pressure;BME280_temperature;BME280_humidity;BME280_pressure;Samples;Min_cycle;Max_cycle;Signal;HPM_P1;HPM_P2
2022/01/26 00:06:06;;;;;;;57.35;26.67;;;;;;;;;;5053491;28;20193;-65
2022/01/26 00:08:33;;;;;;;59.22;26.45;;;;;;;;;;5053548;28;20192;-66
2022/01/26 00:11:01;;;;;;;67.50;28.92;;;;;;;;;;5053267;28;20204;-65
2022/01/26 00:13:30;;;;;;;61.10;28.92;;;;;;;;;;5053521;28;20312;-65
2022/01/26 00:15:59;;;;;;;63.75;27.92;;;;;;;;;;5053150;28;20698;-65
2022/01/26 00:18:30;;;;;;;53.15;26.13;;;;;;;;;;5053654;28;20215;-66
2022/01/26 00:21:04;;;;;;;65.68;30.60;;;;;;;;;;5053963;28;20184;-65
2022/01/26 00:26:25;;;;;;;61.50;26.13;;;;;;;;;;5052583;28;20201;-65
2022/01/26 00:29:08;;;;;;;62.42;28.20;;;;;;;;;;5053642;28;20210;-65
2022/01/26 00:39:50;;;;;;;63.30;27.83;;;;;;;;;;5053156;28;20570;-64
2022/01/26 00:42:17;;;;;;;57.92;26.80;;;;;;;;;;5052918;28;20728;-65
2022/01/26 00:44:49;;;;;;;64.18;26.48;;;;;;;;;;5053720;28;20201;-65
2022/01/26 00:47:16;;;;;;;64.95;27.40;;;;;;;;;;5052574;28;20207;-64
2022/01/26 00:49:43;;;;;;;77.15;30.48;;;;;;;;;;5053384;28;20190;-65
2022/01/26 00:52:17;;;;;;;73.20;29.33;;;;;;;;;;5052918;28;20284;-65
2022/01/26 00:54:44;;;;;;;72.72;30.52;;;;;;;;;;5053253;28;20624;-66
2022/01/26 00:57:11;;;;;;;69.38;27.45;;;;;;;;;;5052771;28;20230;-65
2022/01/26 00:59:38;;;;;;;71.68;31.98;;;;;;;;;;5052940;28;20221;-65
2022/01/26 01:02:07;;;;;;;71.03;30.65;;;;;;;;;;5052725;28;20191;-65
2022/01/26 01:04:34;;;;;;;77.13;32.30;;;;;;;;;;5052735;28;20195;-65
2022/01/26 01:07:04;;;;;;;79.53;33.47;;;;;;;;;;5052996;28;20195;-66
2022/01/26 01:09:34;;;;;;;86.70;35.50;;;;;;;;;;5052926;28;20216;-66
2022/01/26 01:12:03;;;;;;;73.47;31.23;;;;;;;;;;5052621;28;20205;-66
2022/01/26 01:14:36;;;;;;;76.97;34.22;;;;;;;;;;5053063;28;20600;-66
2022/01/26 01:17:05;;;;;;;85.63;37.75;;;;;;;;;;5053128;28;20229;-64
2022/01/26 01:19:38;;;;;;;88.32;34.25;;;;;;;;;;5052858;28;20227;-65
2022/01/26 01:22:37;;;;;;;72.75;32.45;;;;;;;;;;5052985;28;20187;-65
2022/01/26 01:28:10;;;;;;;86.45;36.80;;;;;;;;;;5056334;28;20184;-65
2022/01/26 01:30:41;;;;;;;89.07;34.80;;;;;;;;;;5056410;28;20199;-66
2022/01/26 01:33:10;;;;;;;106.00;34.67;;;;;;;;;;5056072;28;20188;-65
2022/01/26 01:35:41;;;;;;;90.90;36.70;;;;;;;;;;5055987;28;20195;-65
2022/01/26 01:38:11;;;;;;;98.53;39.72;;;;;;;;;;5056002;28;20189;-65
2022/01/26 01:40:39;;;;;;;89.47;38.50;;;;;;;;;;5056156;28;20223;-65
2022/01/26 01:43:07;;;;;;;91.05;34.38;;;;;;;;;;5056636;28;20238;-66
2022/01/26 01:45:35;;;;;;;91.57;37.38;;;;;;;;;;5056436;28;20624;-65
2022/01/26 01:48:02;;;;;;;90.72;37.45;;;;;;;;;;5055640;28;20242;-65
2022/01/26 01:50:30;;;;;;;82.57;35.17;;;;;;;;;;5056002;28;20225;-65
2022/01/26 01:53:01;;;;;;;87.72;36.55;;;;;;;;;;5055679;28;20231;-64
2022/01/26 01:55:30;;;;;;;91.13;38.15;;;;;;;;;;5055962;28;20187;-65
2022/01/26 01:57:57;;;;;;;85.15;37.38;;;;;;;;;;5055852;28;20296;-65
2022/01/26 02:00:25;;;;;;;101.22;38.78;;;;;;;;;;5055961;28;20314;-65
2022/01/26 02:02:53;;;;;;;90.40;35.05;;;;;;;;;;5055758;28;20293;-65
2022/01/26 02:05:20;;;;;;;89.85;39.22;;;;;;;;;;5055447;28;20294;-65
2022/01/26 02:07:47;;;;;;;100.35;40.47;;;;;;;;;;5056442;28;20273;-65
2022/01/26 02:10:16;;;;;;;98.45;36.40;;;;;;;;;;5055931;28;20304;-65
2022/01/26 02:12:48;;;;;;;86.68;35.70;;;;;;;;;;5056188;28;20191;-66
2022/01/26 02:15:20;;;;;;;93.13;36.55;;;;;;;;;;5055560;28;20187;-64
2022/01/26 02:18:09;;;;;;;93.82;38.88;;;;;;;;;;5056058;28;20251;-65
2022/01/26 02:51:16;;;;;;;105.65;40.50;;;;;;;;;;5054646;28;20266;-66
2022/01/26 02:56:31;;;;;;;94.85;36.47;;;;;;;;;;5054262;28;20650;-65
2022/01/26 02:59:29;;;;;;;90.28;38.78;;;;;;;;;;5054350;28;20189;-64
2022/01/26 03:01:59;;;;;;;95.68;38.97;;;;;;;;;;5054628;28;20201;-66
2022/01/26 03:04:34;;;;;;;97.72;38.60;;;;;;;;;;5054543;28;20196;-66
2022/01/26 03:07:07;;;;;;;101.10;38.20;;;;;;;;;;5054309;28;20187;-65
2022/01/26 03:09:41;;;;;;;115.05;41.20;;;;;;;;;;5054929;28;20270;-66
2022/01/26 03:12:10;;;;;;;108.38;40.92;;;;;;;;;;5054178;28;20225;-65
2022/01/26 03:14:46;;;;;;;102.43;40.55;;;;;;;;;;5054463;28;20245;-65
2022/01/26 03:17:24;;;;;;;101.82;35.20;;;;;;;;;;5054455;28;20227;-65
2022/01/26 03:19:55;;;;;;;98.70;37.75;;;;;;;;;;5054506;28;20229;-66
2022/01/26 03:28:20;;;;;;;107.20;40.70;;;;;;;;;;5054197;28;20194;-66
2022/01/26 03:31:12;;;;;;;91.00;36.10;;;;;;;;;;5054547;28;20191;-65
2022/01/26 03:36:26;;;;;;;96.93;40.13;;;;;;;;;;5053609;28;20210;-65
2022/01/26 03:39:00;;;;;;;85.28;35.55;;;;;;;;;;5053681;28;20711;-66
2022/01/26 03:41:38;;;;;;;92.75;35.80;;;;;;;;;;5053962;28;20218;-66
2022/01/26 03:44:05;;;;;;;104.57;34.97;;;;;;;;;;5053975;28;20605;-65
2022/01/26 03:46:33;;;;;;;82.85;37.50;;;;;;;;;;5053132;28;20282;-65
2022/01/26 03:49:00;;;;;;;72.47;30.63;;;;;;;;;;5053255;28;20266;-65
2022/01/26 03:51:28;;;;;;;91.03;33.47;;;;;;;;;;5053891;28;20563;-65
2022/01/26 03:53:55;;;;;;;95.25;35.38;;;;;;;;;;5053427;28;20291;-65
2022/01/26 03:56:22;;;;;;;92.80;35.22;;;;;;;;;;5053674;28;20205;-65
2022/01/26 03:58:51;;;;;;;105.55;35.70;;;;;;;;;;5053987;28;20194;-65
2022/01/26 04:01:18;;;;;;;86.50;31.45;;;;;;;;;;5053544;28;20320;-64
2022/01/26 04:03:45;;;;;;;81.10;28.55;;;;;;;;;;5053608;28;20205;-65
2022/01/26 04:06:13;;;;;;;85.53;31.98;;;;;;;;;;5053624;28;20572;-65
2022/01/26 04:08:42;;;;;;;80.05;31.25;;;;;;;;;;5053868;28;20201;-65
2022/01/26 04:11:27;;;;;;;98.05;33.28;;;;;;;;;;5053499;28;20566;-65
2022/01/26 04:13:56;;;;;;;86.20;33.17;;;;;;;;;;5054090;28;20187;-65
2022/01/26 04:16:23;;;;;;;98.60;34.85;;;;;;;;;;5053468;28;20536;-65
2022/01/26 04:18:52;;;;;;;89.57;32.58;;;;;;;;;;5054029;28;20695;-65
2022/01/26 04:21:27;;;;;;;87.80;35.40;;;;;;;;;;5053028;28;20214;-65
2022/01/26 04:23:59;;;;;;;103.25;35.30;;;;;;;;;;5053103;28;20279;-65
2022/01/26 04:26:31;;;;;;;96.28;36.65;;;;;;;;;;5053605;28;20200;-65
2022/01/26 04:29:04;;;;;;;87.50;32.08;;;;;;;;;;5053410;28;20183;-65
2022/01/26 04:31:31;;;;;;;96.70;36.05;;;;;;;;;;5053531;28;20184;-65
2022/01/26 04:33:58;;;;;;;72.30;31.00;;;;;;;;;;5053786;28;20222;-65
2022/01/26 04:36:31;;;;;;;85.90;31.98;;;;;;;;;;5053071;28;20243;-65
2022/01/26 04:39:02;;;;;;;76.28;32.47;;;;;;;;;;5053425;28;20192;-65
2022/01/26 04:41:35;;;;;;;97.43;37.35;;;;;;;;;;5053519;28;20215;-64
2022/01/26 04:44:09;;;;;;;99.65;37.05;;;;;;;;;;5053685;28;20179;-64
2022/01/26 04:46:36;;;;;;;90.65;34.88;;;;;;;;;;5053008;28;20192;-65
2022/01/26 04:49:04;;;;;;;89.05;33.03;;;;;;;;;;5053259;28;20263;-66
2022/01/26 04:51:31;;;;;;;84.95;33.72;;;;;;;;;;5053887;28;20236;-65
2022/01/26 04:53:59;;;;;;;77.28;29.08;;;;;;;;;;5053109;28;20234;-65
2022/01/26 04:56:26;;;;;;;87.43;34.67;;;;;;;;;;5053105;28;20279;-65
2022/01/26 04:58:53;;;;;;;100.20;38.92;;;;;;;;;;5055451;28;20287;-65
2022/01/26 05:01:22;;;;;;;89.85;33.33;;;;;;;;;;5056850;28;20518;-64
2022/01/26 05:03:49;;;;;;;86.57;30.70;;;;;;;;;;5056899;28;20276;-66
2022/01/26 05:06:16;;;;;;;97.47;37.55;;;;;;;;;;5056544;28;20231;-65
2022/01/26 05:08:44;;;;;;;84.78;34.53;;;;;;;;;;5056873;28;20199;-65
2022/01/26 05:11:15;;;;;;;88.68;37.70;;;;;;;;;;5056756;28;20290;-65
2022/01/26 05:13:42;;;;;;;82.65;32.17;;;;;;;;;;5056795;28;20641;-66
2022/01/26 05:16:10;;;;;;;87.50;31.55;;;;;;;;;;5056635;28;20291;-65
2022/01/26 05:18:39;;;;;;;103.13;38.20;;;;;;;;;;5056185;28;20279;-65
2022/01/26 05:21:06;;;;;;;85.88;34.13;;;;;;;;;;5056607;28;20219;-65
2022/01/26 05:23:33;;;;;;;97.35;37.22;;;;;;;;;;5056164;28;20305;-66
2022/01/26 05:26:00;;;;;;;74.10;31.67;;;;;;;;;;5056890;28;20628;-66
2022/01/26 05:28:27;;;;;;;86.15;34.35;;;;;;;;;;5056317;28;20197;-65
2022/01/26 05:30:55;;;;;;;80.82;36.30;;;;;;;;;;5056490;28;20281;-66
2022/01/26 05:33:23;;;;;;;86.07;38.08;;;;;;;;;;5055329;28;20200;-66
2022/01/26 05:35:52;;;;;;;86.13;33.78;;;;;;;;;;5055838;28;20202;-66
2022/01/26 05:38:19;;;;;;;94.22;35.22;;;;;;;;;;5056040;28;20563;-66
2022/01/26 05:40:47;;;;;;;101.60;34.50;;;;;;;;;;5055842;28;20222;-65
2022/01/26 05:43:15;;;;;;;75.80;31.45;;;;;;;;;;5056039;28;20255;-65
2022/01/26 05:45:46;;;;;;;96.80;35.70;;;;;;;;;;5055803;28;20644;-66
2022/01/26 05:48:14;;;;;;;91.47;38.40;;;;;;;;;;5056285;28;20565;-66
2022/01/26 05:50:50;;;;;;;87.65;35.65;;;;;;;;;;5056366;28;20199;-66
2022/01/26 05:53:21;;;;;;;91.63;35.65;;;;;;;;;;5055560;28;20225;-65
2022/01/26 05:55:48;;;;;;;79.80;33.42;;;;;;;;;;5055910;28;20190;-65
2022/01/26 05:58:15;;;;;;;87.32;34.70;;;;;;;;;;5056080;28;20290;-65
2022/01/26 06:00:43;;;;;;;87.25;35.50;;;;;;;;;;5055654;28;20327;-66
2022/01/26 06:03:10;;;;;;;94.97;38.15;;;;;;;;;;5055632;28;20272;-65
2022/01/26 06:05:37;;;;;;;69.35;27.35;;;;;;;;;;5055570;28;20237;-66
2022/01/26 06:08:05;;;;;;;98.05;36.75;;;;;;;;;;5055416;28;20203;-65
2022/01/26 06:10:33;;;;;;;86.65;34.58;;;;;;;;;;5055341;28;20230;-66
2022/01/26 06:13:00;;;;;;;93.07;32.45;;;;;;;;;;5055509;28;20282;-66
2022/01/26 06:15:28;;;;;;;107.60;39.03;;;;;;;;;;5055139;28;20671;-66
2022/01/26 06:17:55;;;;;;;89.07;35.42;;;;;;;;;;5055673;28;20192;-66
2022/01/26 06:20:22;;;;;;;112.47;41.22;;;;;;;;;;5055364;28;20686;-66
2022/01/26 06:22:50;;;;;;;102.72;38.42;;;;;;;;;;5055108;28;20621;-66
2022/01/26 06:25:17;;;;;;;88.57;33.40;;;;;;;;;;5054823;28;20288;-65
2022/01/26 06:27:47;;;;;;;112.65;41.83;;;;;;;;;;5053905;28;20674;-66
2022/01/26 06:30:14;;;;;;;98.28;40.45;;;;;;;;;;5053526;28;20190;-65
2022/01/26 06:32:42;;;;;;;94.32;37.15;;;;;;;;;;5054963;28;20195;-69
2022/01/26 06:35:10;;;;;;;106.32;37.08;;;;;;;;;;5055108;28;20199;-67
2022/01/26 06:37:37;;;;;;;92.13;36.15;;;;;;;;;;5055187;28;20279;-67
2022/01/26 06:40:05;;;;;;;95.70;38.55;;;;;;;;;;5054948;28;20297;-67
2022/01/26 06:42:39;;;;;;;87.80;35.70;;;;;;;;;;5054644;28;20195;-67
2022/01/26 06:45:16;;;;;;;114.72;41.10;;;;;;;;;;5055593;28;20234;-67
2022/01/26 06:48:00;;;;;;;75.45;35.25;;;;;;;;;;5054678;28;20570;-67
2022/01/26 06:50:27;;;;;;;92.25;35.38;;;;;;;;;;5054464;28;20198;-66
2022/01/26 06:52:55;;;;;;;98.47;35.88;;;;;;;;;;5054799;28;20535;-67
2022/01/26 06:55:22;;;;;;;74.28;29.83;;;;;;;;;;5055017;28;20196;-67
2022/01/26 06:57:49;;;;;;;96.63;34.90;;;;;;;;;;5055598;28;20202;-67
2022/01/26 07:00:18;;;;;;;72.65;28.52;;;;;;;;;;5054547;28;20326;-67
2022/01/26 07:02:45;;;;;;;70.80;33.55;;;;;;;;;;5054556;28;20199;-67
2022/01/26 07:05:13;;;;;;;90.93;32.28;;;;;;;;;;5054245;28;20289;-67
2022/01/26 07:07:41;;;;;;;81.32;30.08;;;;;;;;;;5054353;28;20206;-68
2022/01/26 07:10:09;;;;;;;92.55;36.33;;;;;;;;;;5054877;28;20199;-67
2022/01/26 07:12:36;;;;;;;82.55;32.90;;;;;;;;;;5054652;28;20262;-66
2022/01/26 07:23:25;;;;;;;99.75;35.25;;;;;;;;;;5048764;28;20580;-67
2022/01/26 07:25:52;;;;;;;89.10;35.35;;;;;;;;;;5054192;28;20199;-67
2022/01/26 07:28:19;;;;;;;89.20;35.70;;;;;;;;;;5054117;28;20653;-67
2022/01/26 07:30:46;;;;;;;90.80;35.38;;;;;;;;;;5054079;28;20238;-67
2022/01/26 07:33:15;;;;;;;87.18;34.25;;;;;;;;;;5053824;28;20286;-66
2022/01/26 07:35:42;;;;;;;90.88;33.15;;;;;;;;;;5054263;28;20246;-67
2022/01/26 07:38:09;;;;;;;88.35;35.00;;;;;;;;;;5054015;28;20230;-67
2022/01/26 07:40:39;;;;;;;82.32;33.70;;;;;;;;;;5054111;28;20215;-67
2022/01/26 07:43:06;;;;;;;84.50;33.35;;;;;;;;;;5054032;28;20199;-66
2022/01/26 07:45:33;;;;;;;82.47;34.25;;;;;;;;;;5054571;28;20264;-67
2022/01/26 07:48:01;;;;;;;83.88;35.42;;;;;;;;;;5054445;28;20804;-67
2022/01/26 07:50:29;;;;;;;88.25;34.92;;;;;;;;;;5055645;28;20229;-67
2022/01/26 07:52:59;;;;;;;79.30;33.05;;;;;;;;;;5055572;28;20287;-67
2022/01/26 07:55:26;;;;;;;81.38;32.22;;;;;;;;;;5055373;28;20199;-67
2022/01/26 07:57:55;;;;;;;89.38;32.05;;;;;;;;;;5053953;28;20199;-66
2022/01/26 08:00:23;;;;;;;95.25;35.33;;;;;;;;;;5054501;28;20227;-66
2022/01/26 08:02:50;;;;;;;101.32;37.45;;;;;;;;;;5054587;28;20252;-68
2022/01/26 08:05:18;;;;;;;81.15;32.80;;;;;;;;;;5054727;28;20699;-67
2022/01/26 08:07:46;;;;;;;87.22;35.70;;;;;;;;;;5054720;28;20236;-68
2022/01/26 08:10:14;;;;;;;90.72;34.45;;;;;;;;;;5054912;28;20304;-68
2022/01/26 08:12:41;;;;;;;98.15;38.50;;;;;;;;;;5055212;28;20198;-67
2022/01/26 08:15:09;;;;;;;94.60;33.95;;;;;;;;;;5054841;28;20196;-67
2022/01/26 08:17:36;;;;;;;97.28;39.10;;;;;;;;;;5055667;28;20265;-67
2022/01/26 08:20:05;;;;;;;101.55;39.50;;;;;;;;;;5055643;28;20206;-66
2022/01/26 08:22:33;;;;;;;96.80;37.67;;;;;;;;;;5055180;28;20211;-67
2022/01/26 08:25:02;;;;;;;93.70;38.72;;;;;;;;;;5055370;28;20329;-68
2022/01/26 08:27:37;;;;;;;81.65;32.28;;;;;;;;;;5055943;28;20222;-67
2022/01/26 08:30:08;;;;;;;89.10;30.35;;;;;;;;;;5056438;28;20237;-67
2022/01/26 08:32:35;;;;;;;92.13;37.05;;;;;;;;;;5058300;28;20200;-68
2022/01/26 08:35:03;;;;;;;102.88;38.83;;;;;;;;;;5060741;28;20196;-68
2022/01/26 08:37:30;;;;;;;88.20;36.45;;;;;;;;;;5059723;28;20276;-68
2022/01/26 08:39:57;;;;;;;96.85;35.90;;;;;;;;;;5058430;28;20195;-67
2022/01/26 08:42:26;;;;;;;93.70;36.75;;;;;;;;;;5058109;28;20314;-67
2022/01/26 08:44:53;;;;;;;102.72;38.28;;;;;;;;;;5059445;28;20196;-67
2022/01/26 08:47:20;;;;;;;89.85;37.67;;;;;;;;;;5058945;28;20230;-68
2022/01/26 08:49:48;;;;;;;89.97;37.35;;;;;;;;;;5059444;28;20183;-67
2022/01/26 08:52:15;;;;;;;88.90;34.95;;;;;;;;;;5058707;28;20250;-69
2022/01/26 08:54:42;;;;;;;96.75;37.15;;;;;;;;;;5057580;28;20245;-67
2022/01/26 08:57:10;;;;;;;93.35;36.65;;;;;;;;;;5057202;28;20286;-68
2022/01/26 08:59:40;;;;;;;80.35;32.05;;;;;;;;;;5057826;28;20231;-68
2022/01/26 09:02:08;;;;;;;114.05;41.78;;;;;;;;;;5057478;28;20243;-67
2022/01/26 09:04:35;;;;;;;114.40;41.78;;;;;;;;;;5057453;28;20277;-68
2022/01/26 09:07:03;;;;;;;110.32;41.65;;;;;;;;;;5057486;28;20226;-68
2022/01/26 09:09:41;;;;;;;103.70;40.40;;;;;;;;;;5057104;28;20285;-67
2022/01/26 09:12:09;;;;;;;103.85;41.25;;;;;;;;;;5056970;28;20187;-68
2022/01/26 09:14:36;;;;;;;119.05;38.55;;;;;;;;;;5057049;28;20264;-68
2022/01/26 09:17:06;;;;;;;103.35;36.13;;;;;;;;;;5056694;28;20294;-67
2022/01/26 09:19:34;;;;;;;111.70;42.67;;;;;;;;;;5056931;28;20191;-67
2022/01/26 09:22:02;;;;;;;92.75;34.90;;;;;;;;;;5057303;28;20223;-68
2022/01/26 09:24:30;;;;;;;112.68;40.65;;;;;;;;;;5056841;28;20195;-68
2022/01/26 09:26:58;;;;;;;108.10;40.67;;;;;;;;;;5056547;28;20195;-67
2022/01/26 09:29:26;;;;;;;108.82;42.05;;;;;;;;;;5056304;28;20230;-67
2022/01/26 09:31:53;;;;;;;124.78;43.20;;;;;;;;;;5056193;28;20262;-67
2022/01/26 09:34:23;;;;;;;115.68;40.10;;;;;;;;;;5056017;28;20237;-68
2022/01/26 09:36:50;;;;;;;110.88;40.63;;;;;;;;;;5056392;28;20191;-68
2022/01/26 09:39:18;;;;;;;111.15;39.85;;;;;;;;;;5056102;28;20289;-68
2022/01/26 09:41:46;;;;;;;115.03;43.85;;;;;;;;;;5056212;28;20239;-67
2022/01/26 09:44:14;;;;;;;109.15;39.28;;;;;;;;;;5055207;28;20202;-67
2022/01/26 09:46:41;;;;;;;122.70;46.90;;;;;;;;;;5056353;28;20557;-67
2022/01/26 09:49:08;;;;;;;109.72;39.15;;;;;;;;;;5056397;28;20270;-67
2022/01/26 09:51:42;;;;;;;118.93;41.88;;;;;;;;;;5056092;28;20203;-67
2022/01/26 09:54:12;;;;;;;113.07;42.75;;;;;;;;;;5055758;28;20274;-67
2022/01/26 09:56:40;;;;;;;142.80;46.03;;;;;;;;;;5056718;28;20187;-67
2022/01/26 09:59:07;;;;;;;111.88;42.13;;;;;;;;;;5055935;28;20192;-68
2022/01/26 10:01:41;;;;;;;124.00;44.75;;;;;;;;;;5055442;28;20214;-68
2022/01/26 10:04:19;;;;;;;114.45;41.15;;;;;;;;;;5055764;28;20195;-68
2022/01/26 10:07:13;;;;;;;121.65;43.50;;;;;;;;;;5056358;28;20205;-68
2022/01/26 10:09:52;;;;;;;112.10;43.60;;;;;;;;;;5053787;28;20259;-68
2022/01/26 10:18:01;;;;;;;126.53;44.90;;;;;;;;;;5057151;28;20222;-68
2022/01/26 10:20:28;;;;;;;128.40;44.75;;;;;;;;;;5056123;28;20190;-68
2022/01/26 10:22:55;;;;;;;127.93;47.67;;;;;;;;;;5055537;28;20309;-68
2022/01/26 10:25:24;;;;;;;121.13;41.83;;;;;;;;;;5055580;28;20226;-68
2022/01/26 10:27:52;;;;;;;127.63;45.42;;;;;;;;;;5056139;28;20200;-68
2022/01/26 10:30:20;;;;;;;106.68;43.10;;;;;;;;;;5058170;28;20218;-68
2022/01/26 10:32:48;;;;;;;100.25;40.28;;;;;;;;;;5058909;28;20207;-70
2022/01/26 10:35:16;;;;;;;129.02;44.65;;;;;;;;;;5056517;28;20191;-67
2022/01/26 10:37:50;;;;;;;127.38;41.63;;;;;;;;;;5055723;28;20198;-67
2022/01/26 10:40:21;;;;;;;110.88;37.70;;;;;;;;;;5056419;28;20658;-68
2022/01/26 10:43:01;;;;;;;137.57;46.28;;;;;;;;;;5055444;28;20204;-68
2022/01/26 10:45:34;;;;;;;121.07;45.78;;;;;;;;;;5055749;28;20224;-68
2022/01/26 10:48:14;;;;;;;120.03;42.55;;;;;;;;;;5056104;28;20219;-67
2022/01/26 10:50:58;;;;;;;120.63;47.20;;;;;;;;;;5055792;28;20188;-67
2022/01/26 10:53:36;;;;;;;100.72;38.95;;;;;;;;;;5056060;28;20188;-68
2022/01/26 10:56:04;;;;;;;131.10;41.97;;;;;;;;;;5055490;28;20224;-68
2022/01/26 10:58:33;;;;;;;103.00;40.15;;;;;;;;;;5056664;28;20208;-67
2022/01/26 11:01:00;;;;;;;122.57;47.55;;;;;;;;;;5056979;28;20199;-67
2022/01/26 11:03:28;;;;;;;122.60;44.22;;;;;;;;;;5055784;28;20215;-68
2022/01/26 11:05:55;;;;;;;105.25;36.47;;;;;;;;;;5055939;28;20287;-67
2022/01/26 11:08:24;;;;;;;132.77;44.80;;;;;;;;;;5056599;28;20235;-67
2022/01/26 11:10:51;;;;;;;133.68;45.38;;;;;;;;;;5059442;28;20199;-68
2022/01/26 11:13:26;;;;;;;123.80;41.42;;;;;;;;;;5057895;28;20226;-68
2022/01/26 11:15:55;;;;;;;116.50;43.25;;;;;;;;;;5057781;28;20201;-67
2022/01/26 11:18:29;;;;;;;114.88;40.70;;;;;;;;;;5057536;28;20199;-68
2022/01/26 11:20:56;;;;;;;144.48;49.92;;;;;;;;;;5061745;28;20597;-68
2022/01/26 11:23:34;;;;;;;105.10;36.25;;;;;;;;;;5059572;28;20257;-67
2022/01/26 11:26:02;;;;;;;105.70;39.28;;;;;;;;;;5058134;28;20189;-67
2022/01/26 11:28:29;;;;;;;153.35;47.95;;;;;;;;;;5058248;28;20196;-68
2022/01/26 11:31:00;;;;;;;136.30;43.05;;;;;;;;;;5057541;28;20282;-68
2022/01/26 11:33:29;;;;;;;117.00;43.75;;;;;;;;;;5057824;28;20218;-68
2022/01/26 11:35:57;;;;;;;143.55;45.88;;;;;;;;;;5056858;28;20200;-67
2022/01/26 11:39:14;;;;;;;122.78;41.90;;;;;;;;;;5057333;28;20272;-68
2022/01/26 11:47:19;;;;;;;151.45;49.67;;;;;;;;;;5053647;28;20612;-68
2022/01/26 11:49:47;;;;;;;111.13;37.63;;;;;;;;;;5053555;28;20179;-68
2022/01/26 11:52:21;;;;;;;142.20;47.42;;;;;;;;;;5053554;28;20204;-67
2022/01/26 11:54:52;;;;;;;123.82;44.65;;;;;;;;;;5054173;28;20190;-67
2022/01/26 11:57:21;;;;;;;143.30;48.22;;;;;;;;;;5053293;28;20239;-68
2022/01/26 12:00:00;;;;;;;145.68;45.63;;;;;;;;;;5053458;28;20195;-68
2022/01/26 12:02:48;;;;;;;125.03;43.20;;;;;;;;;;5053681;28;20554;-68
2022/01/26 12:05:19;;;;;;;135.63;46.78;;;;;;;;;;5053293;28;20187;-67
2022/01/26 12:07:49;;;;;;;128.88;43.83;;;;;;;;;;5053138;28;20193;-67
2022/01/26 12:10:23;;;;;;;115.50;41.55;;;;;;;;;;5052939;28;20200;-68
2022/01/26 12:12:58;;;;;;;117.28;39.08;;;;;;;;;;5053044;28;20195;-67
2022/01/26 12:15:27;;;;;;;126.80;43.97;;;;;;;;;;5053005;28;20183;-67
2022/01/26 12:18:12;;;;;;;135.05;41.85;;;;;;;;;;5053705;28;20246;-68
2022/01/26 12:34:57;;;;;;;114.25;42.20;;;;;;;;;;5030600;28;20584;-68
2022/01/26 12:37:37;;;;;;;106.88;36.33;;;;;;;;;;5049363;28;20538;-67
2022/01/26 12:43:06;;;;;;;118.65;40.55;;;;;;;;;;5052959;28;20726;-68
2022/01/26 12:45:34;;;;;;;97.35;35.00;;;;;;;;;;5053155;28;20183;-67
2022/01/26 12:48:01;;;;;;;127.30;43.47;;;;;;;;;;5053769;28;20237;-67
2022/01/26 12:50:35;;;;;;;119.03;41.35;;;;;;;;;;5052878;28;20266;-67
2022/01/26 12:53:02;;;;;;;103.28;37.95;;;;;;;;;;5053434;28;20195;-67
2022/01/26 12:55:32;;;;;;;125.18;46.38;;;;;;;;;;5052622;28;20255;-67
2022/01/26 12:57:59;;;;;;;137.00;45.38;;;;;;;;;;5052963;28;20196;-67
2022/01/26 13:00:26;;;;;;;118.65;40.60;;;;;;;;;;5052867;28;20199;-67
2022/01/26 13:02:54;;;;;;;77.43;29.73;;;;;;;;;;5052968;28;20220;-67
2022/01/26 13:05:25;;;;;;;122.47;43.30;;;;;;;;;;5053527;28;20330;-67
2022/01/26 13:08:03;;;;;;;110.82;39.80;;;;;;;;;;5052850;28;20250;-68
2022/01/26 13:10:30;;;;;;;119.22;41.90;;;;;;;;;;5052496;28;20705;-68
2022/01/26 13:12:58;;;;;;;112.18;40.33;;;;;;;;;;5053264;28;20205;-67
2022/01/26 13:15:40;;;;;;;128.98;43.80;;;;;;;;;;5053076;28;20213;-67
2022/01/26 13:21:52;;;;;;;114.28;41.00;;;;;;;;;;5043069;28;20226;-67
2022/01/26 13:24:34;;;;;;;119.78;40.60;;;;;;;;;;5056782;28;20549;-67
2022/01/26 13:27:16;;;;;;;100.93;37.70;;;;;;;;;;5056120;28;20225;-67
2022/01/26 13:29:57;;;;;;;117.82;40.30;;;;;;;;;;5057003;28;20206;-67
2022/01/26 13:35:37;;;;;;;121.28;42.42;;;;;;;;;;5046480;28;20196;-68
2022/01/26 13:38:26;;;;;;;110.25;40.88;;;;;;;;;;5056694;28;20191;-68
2022/01/26 13:41:04;;;;;;;91.53;33.33;;;;;;;;;;5056477;28;20187;-68
2022/01/26 13:49:28;;;;;;;112.03;39.10;;;;;;;;;;5042793;28;20219;-67
2022/01/26 13:52:16;;;;;;;119.43;41.00;;;;;;;;;;5056048;28;20525;-68
2022/01/26 13:58:03;;;;;;;132.88;44.15;;;;;;;;;;5050128;28;20230;-66
2022/01/26 14:00:39;;;;;;;123.78;42.10;;;;;;;;;;5055395;28;20202;-68
2022/01/26 14:03:09;;;;;;;87.00;29.33;;;;;;;;;;5056057;28;20206;-68
2022/01/26 14:05:39;;;;;;;114.97;42.88;;;;;;;;;;5055405;28;20196;-69
2022/01/26 14:08:17;;;;;;;108.93;36.45;;;;;;;;;;5056195;28;20219;-68
2022/01/26 14:10:49;;;;;;;119.95;40.55;;;;;;;;;;5055691;28;20644;-69
2022/01/26 14:13:23;;;;;;;100.35;36.95;;;;;;;;;;5055611;28;20191;-69
2022/01/26 14:15:58;;;;;;;107.25;38.35;;;;;;;;;;5055853;28;20187;-69
2022/01/26 14:18:59;;;;;;;101.43;36.67;;;;;;;;;;5055285;28;20205;-69
2022/01/26 14:22:07;;;;;;;99.93;37.78;;;;;;;;;;5054823;28;20189;-69
2022/01/26 14:24:52;;;;;;;80.80;30.48;;;;;;;;;;5055053;28;20199;-68
2022/01/26 14:27:23;;;;;;;100.88;38.70;;;;;;;;;;5055475;28;20191;-68
2022/01/26 14:30:04;;;;;;;102.82;37.20;;;;;;;;;;5054535;28;20207;-69
2022/01/26 14:35:43;;;;;;;98.78;39.58;;;;;;;;;;5049710;28;20745;-69
2022/01/26 14:50:54;;;;;;;84.07;33.22;;;;;;;;;;5054810;28;20239;-69
2022/01/26 14:55:25;;;;;;;67.50;29.63;;;;;;;;;;5032407;28;20210;-68
2022/01/26 15:33:41;;;;;;;92.53;34.67;;;;;;;;;;5052708;28;20275;-69
2022/01/26 15:45:04;;;;;;;89.28;35.47;;;;;;;;;;4995660;28;20249;-69
2022/01/26 15:50:25;;;;;;;77.13;34.85;;;;;;;;;;5053320;28;20222;-69
2022/01/26 15:53:03;;;;;;;89.53;30.88;;;;;;;;;;5053867;28;20196;-70
2022/01/26 15:58:32;;;;;;;86.45;32.30;;;;;;;;;;5053354;28;20242;-70
2022/01/26 16:06:45;;;;;;;91.57;33.47;;;;;;;;;;5053606;28;20218;-70
2022/01/26 16:20:39;;;;;;;101.00;37.83;;;;;;;;;;5053285;28;20254;-70
2022/01/26 18:06:53;;;;;;;93.90;36.97;;;;;;;;;;5055027;28;20262;-70
2022/01/26 18:16:57;;;;;;;101.80;39.22;;;;;;;;;;5054740;28;20196;-68
2022/01/26 18:33:14;;;;;;;98.10;36.10;;;;;;;;;;5055352;28;20184;-69
2022/01/26 18:39:05;;;;;;;101.90;39.30;;;;;;;;;;5055027;28;20749;-69
2022/01/26 18:49:59;;;;;;;87.57;32.03;;;;;;;;;;5012957;28;20667;-68
2022/01/26 18:52:26;;;;;;;98.43;40.88;;;;;;;;;;5029710;28;20259;-69
2022/01/26 18:54:55;;;;;;;88.72;37.90;;;;;;;;;;5034988;28;20629;-70
2022/01/26 18:57:22;;;;;;;109.63;40.78;;;;;;;;;;5035018;28;20613;-69
2022/01/26 18:59:49;;;;;;;93.95;39.25;;;;;;;;;;5034858;28;20238;-69
2022/01/26 19:02:16;;;;;;;92.25;37.92;;;;;;;;;;5034992;28;20281;-69
2022/01/26 19:04:46;;;;;;;97.38;39.80;;;;;;;;;;5035089;28;20656;-69
2022/01/26 19:07:14;;;;;;;105.70;43.45;;;;;;;;;;5033080;28;20280;-67
2022/01/26 19:09:44;;;;;;;89.78;37.03;;;;;;;;;;5034354;28;20200;-67
2022/01/26 19:12:17;;;;;;;110.20;41.72;;;;;;;;;;5034606;28;20186;-70
2022/01/26 19:14:49;;;;;;;102.85;42.35;;;;;;;;;;5034241;28;20196;-69
2022/01/26 19:17:21;;;;;;;88.13;34.63;;;;;;;;;;5033484;28;20254;-69
2022/01/26 19:19:59;;;;;;;103.50;39.13;;;;;;;;;;5034272;28;20182;-70
2022/01/26 19:25:15;;;;;;;99.55;34.10;;;;;;;;;;5023754;28;20239;-69
2022/01/26 19:27:51;;;;;;;96.45;39.63;;;;;;;;;;5034056;28;20189;-70
2022/01/26 19:44:22;;;;;;;87.50;35.80;;;;;;;;;;5033553;28;20265;-70
2022/01/26 19:52:19;;;;;;;113.28;42.30;;;;;;;;;;5033659;28;20246;-69
2022/01/26 19:54:49;;;;;;;94.22;38.63;;;;;;;;;;5033372;28;20203;-70
2022/01/26 19:57:16;;;;;;;82.22;36.60;;;;;;;;;;5033677;28;20211;-70
2022/01/26 19:59:45;;;;;;;86.60;35.20;;;;;;;;;;5033364;28;20206;-71
2022/01/26 20:02:12;;;;;;;91.82;39.05;;;;;;;;;;5033600;28;20246;-70
2022/01/26 20:04:39;;;;;;;107.38;41.63;;;;;;;;;;5033321;28;20274;-69
2022/01/26 20:07:12;;;;;;;89.68;36.28;;;;;;;;;;5033287;28;20672;-70
2022/01/26 20:09:43;;;;;;;91.15;34.78;;;;;;;;;;5033318;28;20670;-69
2022/01/26 20:12:20;;;;;;;79.32;32.20;;;;;;;;;;5033555;28;20195;-68
2022/01/26 20:14:49;;;;;;;91.45;37.05;;;;;;;;;;5033306;28;20184;-70
2022/01/26 20:17:16;;;;;;;97.35;36.92;;;;;;;;;;5033354;28;20701;-67
2022/01/26 20:19:44;;;;;;;93.30;36.00;;;;;;;;;;5033684;28;20200;-67
2022/01/26 20:22:11;;;;;;;95.63;36.67;;;;;;;;;;5033626;28;20284;-66
2022/01/26 20:24:39;;;;;;;90.72;36.42;;;;;;;;;;5033555;28;20270;-68
2022/01/26 20:27:08;;;;;;;99.25;35.55;;;;;;;;;;5033099;28;20258;-67
2022/01/26 20:29:40;;;;;;;101.32;39.35;;;;;;;;;;5033223;28;20233;-66